createdAt,value
2022-12-18T00:01:22.791Z,-8.40
2022-12-18T00:02:55.684Z,-8.50
2022-12-18T00:04:30.001Z,-7.20
2022-12-18T00:06:03.406Z,-9.10
2022-12-18T00:07:37.231Z,-8.40
2022-12-18T00:09:11.445Z,-9.20
2022-12-18T00:10:45.686Z,-8.00
2022-12-18T00:13:58.305Z,-9.00
2022-12-18T00:15:31.183Z,-7.20
2022-12-18T00:18:36.802Z,-9.10
2022-12-18T00:20:11.324Z,-8.80
2022-12-18T00:21:45.597Z,-8.80
2022-12-18T00:23:18.594Z,-8.80
2022-12-18T00:24:51.553Z,-8.30
2022-12-18T00:26:27.013Z,-8.90
2022-12-18T00:27:59.972Z,-8.50
2022-12-18T00:31:06.787Z,-8.00
2022-12-18T00:32:39.817Z,-7.70
2022-12-18T00:34:13.994Z,-8.70
2022-12-18T00:37:20.343Z,-8.90
2022-12-18T00:40:26.149Z,-9.10
2022-12-18T00:42:17.688Z,-8.90
2022-12-18T00:43:49.557Z,-9.80
2022-12-18T00:45:22.527Z,-9.60
2022-12-18T00:46:55.476Z,-8.90
2022-12-18T00:48:28.323Z,-9.50
2022-12-18T00:50:01.971Z,-9.10
2022-12-18T00:54:40.380Z,-9.10
2022-12-18T00:56:14.377Z,-9.00
2022-12-18T00:57:48.689Z,-9.80
2022-12-18T00:59:20.743Z,-8.90
2022-12-18T01:02:27.006Z,-9.00
2022-12-18T01:04:02.430Z,-9.20
2022-12-18T01:05:34.778Z,-9.10
2022-12-18T01:07:07.755Z,-9.20
2022-12-18T01:08:40.108Z,-8.00
2022-12-18T01:10:14.687Z,-9.10
2022-12-18T01:11:47.594Z,-9.30
2022-12-18T01:13:20.883Z,-9.50
2022-12-18T01:14:53.605Z,-9.00
2022-12-18T01:19:32.258Z,-9.70
2022-12-18T01:21:08.702Z,-9.00
2022-12-18T01:24:14.939Z,-7.80
2022-12-18T01:25:46.870Z,-6.80
2022-12-18T01:28:56.407Z,-7.40
2022-12-18T01:32:01.543Z,-8.30
2022-12-18T01:33:33.483Z,-7.40
2022-12-18T01:35:07.580Z,-8.80
2022-12-18T01:38:12.791Z,-8.80
2022-12-18T01:39:45.709Z,-9.50
2022-12-18T01:41:21.657Z,-8.80
2022-12-18T01:42:53.646Z,-9.50
2022-12-18T01:45:00.662Z,-8.70
2022-12-18T01:46:33.622Z,-9.20
2022-12-18T01:48:09.542Z,-9.20
2022-12-18T01:51:16.148Z,-9.00
2022-12-18T01:52:50.909Z,-9.00
2022-12-18T01:54:23.849Z,-9.00
2022-12-18T01:55:59.033Z,-8.90
2022-12-18T01:57:32.544Z,-9.80
2022-12-18T01:59:09.917Z,-9.10
2022-12-18T02:00:43.530Z,-9.10
2022-12-18T02:02:19.716Z,-7.70
2022-12-18T02:03:53.370Z,-8.90
2022-12-18T02:05:36.103Z,-8.80
2022-12-18T02:07:16.268Z,-8.90
2022-12-18T02:08:59.965Z,-8.80
2022-12-18T02:10:34.733Z,-8.50
2022-12-18T02:12:15.743Z,-7.90
2022-12-18T02:13:59.514Z,-8.40
2022-12-18T02:15:33.259Z,-8.40
2022-12-18T02:17:13.225Z,-8.60
2022-12-18T02:18:49.766Z,-8.20
2022-12-18T02:20:30.066Z,-8.90
2022-12-18T02:22:19.665Z,-8.20
2022-12-18T02:23:58.207Z,-6.70
2022-12-18T02:25:59.770Z,-8.50
2022-12-18T02:27:35.939Z,-8.10
2022-12-18T02:29:14.133Z,-8.00
2022-12-18T02:30:51.288Z,-6.80
2022-12-18T02:32:27.498Z,-7.90
2022-12-18T02:34:03.278Z,-8.10
2022-12-18T02:35:38.351Z,-7.60
2022-12-18T02:37:13.878Z,-7.10
2022-12-18T02:38:48.076Z,-7.40
2022-12-18T02:40:22.752Z,-7.40
2022-12-18T02:41:54.889Z,-7.70
2022-12-18T02:43:29.199Z,-7.30
2022-12-18T02:45:02.110Z,-7.20
2022-12-18T02:46:37.518Z,-7.30
2022-12-18T02:49:51.698Z,-7.20
2022-12-18T02:51:33.571Z,-6.20
2022-12-18T02:53:16.125Z,-6.50
2022-12-18T02:54:58.796Z,-6.50
2022-12-18T02:56:37.412Z,-7.80
2022-12-18T02:58:17.830Z,-6.90
2022-12-18T03:00:00.505Z,-6.80
2022-12-18T03:01:37.857Z,-7.50
2022-12-18T03:03:18.752Z,-6.70
2022-12-18T03:05:00.646Z,-7.40
2022-12-18T03:06:39.222Z,-5.60
2022-12-18T03:08:16.025Z,-6.50
2022-12-18T03:09:51.368Z,-6.60
2022-12-18T03:11:44.508Z,-6.40
2022-12-18T03:13:21.585Z,-6.30
2022-12-18T03:15:00.020Z,-6.90
2022-12-18T03:16:35.463Z,-6.50
2022-12-18T03:18:18.315Z,-6.20
2022-12-18T03:19:52.765Z,-6.20
2022-12-18T03:21:31.855Z,-5.30
2022-12-18T03:23:09.507Z,-7.20
2022-12-18T03:24:42.600Z,-5.20
2022-12-18T03:26:18.930Z,-6.20
2022-12-18T03:27:56.317Z,-6.30
2022-12-18T03:29:35.018Z,-6.50
2022-12-18T03:31:11.938Z,-6.90
2022-12-18T03:32:49.980Z,-6.30
2022-12-18T03:34:29.063Z,-6.40
2022-12-18T03:37:35.689Z,-6.40
2022-12-18T03:39:08.419Z,-6.20
2022-12-18T03:40:51.783Z,-6.70
2022-12-18T03:42:29.945Z,-5.80
2022-12-18T03:44:12.628Z,-6.10
2022-12-18T03:45:54.132Z,-4.80
2022-12-18T03:47:32.637Z,-4.70
2022-12-18T03:49:13.036Z,-5.00
2022-12-18T03:50:50.754Z,-5.00
2022-12-18T03:52:33.750Z,-5.80
2022-12-18T03:54:08.876Z,-5.80
2022-12-18T03:55:42.022Z,-5.80
2022-12-18T03:57:20.161Z,-5.00
2022-12-18T03:58:55.181Z,-5.90
2022-12-18T04:02:03.835Z,-5.80
2022-12-18T04:03:40.227Z,-5.80
2022-12-18T04:05:13.998Z,-5.70
2022-12-18T04:06:49.076Z,-5.60
2022-12-18T04:08:22.517Z,-7.30
2022-12-18T04:09:57.600Z,-5.70
2022-12-18T04:11:29.592Z,-6.40
2022-12-18T04:13:02.549Z,-5.80
2022-12-18T04:14:36.598Z,-5.90
2022-12-18T04:16:10.262Z,-5.90
2022-12-18T04:17:50.453Z,-5.70
2022-12-18T04:19:24.815Z,-4.70
2022-12-18T04:24:03.220Z,-5.80
2022-12-18T04:25:36.118Z,-5.70
2022-12-18T04:27:09.046Z,-5.70
2022-12-18T04:30:14.454Z,-5.80
2022-12-18T04:31:47.329Z,-4.80
2022-12-18T04:33:20.926Z,-4.80
2022-12-18T04:34:54.195Z,-4.70
2022-12-18T04:36:28.527Z,-5.80
2022-12-18T04:39:33.702Z,-5.30
2022-12-18T04:42:40.104Z,-5.60
2022-12-18T04:44:12.994Z,-3.90
2022-12-18T04:45:48.015Z,-6.20
2022-12-18T04:47:25.726Z,-5.60
2022-12-18T04:48:58.704Z,-4.90
2022-12-18T04:50:33.337Z,-5.50
2022-12-18T04:52:06.472Z,-5.40
2022-12-18T04:53:38.756Z,-5.50
2022-12-18T04:55:11.950Z,-5.60
2022-12-18T04:56:44.782Z,-5.50
2022-12-18T04:58:17.917Z,-6.40
2022-12-18T04:59:50.814Z,-4.90
2022-12-18T05:01:24.753Z,-6.10
2022-12-18T05:03:02.598Z,-5.40
2022-12-18T05:04:35.808Z,-4.40
2022-12-18T05:06:09.480Z,-5.30
2022-12-18T05:07:42.348Z,-5.20
2022-12-18T05:09:15.458Z,-5.20
2022-12-18T05:10:48.660Z,-5.20
2022-12-18T05:12:20.686Z,-5.20
2022-12-18T05:13:53.575Z,-5.20
2022-12-18T05:15:27.767Z,-5.80
2022-12-18T05:17:01.558Z,-5.10
2022-12-18T05:18:34.555Z,-4.30
2022-12-18T05:20:07.975Z,-5.10
2022-12-18T05:21:42.047Z,-5.10
2022-12-18T05:23:15.337Z,-5.00
2022-12-18T05:24:47.270Z,-5.00
2022-12-18T05:26:20.515Z,-5.00
2022-12-18T05:27:52.446Z,-5.00
2022-12-18T05:29:25.630Z,-4.90
2022-12-18T05:31:01.047Z,-5.00
2022-12-18T05:32:34.102Z,-4.90
2022-12-18T05:34:07.081Z,-4.90
2022-12-18T05:35:39.944Z,-4.90
2022-12-18T05:37:14.607Z,-3.30
2022-12-18T05:38:47.598Z,-4.80
2022-12-18T05:40:20.606Z,-4.80
2022-12-18T05:41:53.498Z,-5.60
2022-12-18T05:43:27.790Z,-4.80
2022-12-18T05:45:00.646Z,-4.80
2022-12-18T05:46:33.881Z,-4.80
2022-12-18T05:48:07.612Z,-4.80
2022-12-18T05:49:40.677Z,-3.80
2022-12-18T05:51:16.417Z,-3.90
2022-12-18T05:52:50.691Z,-4.90
2022-12-18T05:54:23.663Z,-4.90
2022-12-18T05:55:56.572Z,-5.50
2022-12-18T05:57:29.536Z,-4.00
2022-12-18T05:59:02.418Z,-4.80
2022-12-18T06:00:40.721Z,-4.80
2022-12-18T06:02:13.682Z,-5.10
2022-12-18T06:03:47.159Z,-5.00
2022-12-18T06:05:20.373Z,-4.30
2022-12-18T06:06:54.033Z,-5.40
2022-12-18T06:08:27.463Z,-4.30
2022-12-18T06:10:00.275Z,-5.10
2022-12-18T06:11:32.144Z,-3.70
2022-12-18T06:13:05.458Z,-5.50
2022-12-18T06:14:38.324Z,-4.80
2022-12-18T06:16:11.489Z,-3.80
2022-12-18T06:17:43.530Z,-4.60
2022-12-18T06:19:18.394Z,-4.20
2022-12-18T06:20:57.699Z,-4.40
2022-12-18T06:22:32.345Z,-3.90
2022-12-18T06:24:07.322Z,-4.40
2022-12-18T06:25:40.189Z,-4.40
2022-12-18T06:28:46.558Z,-4.40
2022-12-18T06:30:19.570Z,-4.60
2022-12-18T06:31:52.606Z,-4.20
2022-12-18T06:33:28.906Z,-4.60
2022-12-18T06:35:01.779Z,-4.60
2022-12-18T06:36:34.663Z,-4.50
2022-12-18T06:38:06.537Z,-4.50
2022-12-18T06:39:40.788Z,-4.50
2022-12-18T06:41:15.722Z,-4.50
2022-12-18T06:42:48.679Z,-4.20
2022-12-18T06:46:01.131Z,-4.10
2022-12-18T06:47:34.100Z,-4.30
2022-12-18T06:49:07.074Z,-4.20
2022-12-18T06:50:42.782Z,-4.70
2022-12-18T06:52:18.601Z,-3.90
2022-12-18T06:53:51.642Z,-3.90
2022-12-18T06:55:25.873Z,-4.20
2022-12-18T06:56:58.702Z,-3.20
2022-12-18T06:58:31.605Z,-4.40
2022-12-18T07:00:06.245Z,-3.50
2022-12-18T07:01:39.257Z,-4.20
2022-12-18T07:03:12.618Z,-4.00
2022-12-18T07:04:45.570Z,-4.00
2022-12-18T07:06:20.235Z,-3.70
2022-12-18T07:07:53.178Z,-4.10
2022-12-18T07:09:26.509Z,-3.70
2022-12-18T07:11:01.196Z,-3.80
2022-12-18T07:12:34.057Z,-3.30
2022-12-18T07:14:06.936Z,-4.00
2022-12-18T07:15:39.895Z,-3.60
2022-12-18T07:18:46.378Z,-3.90
2022-12-18T07:20:19.466Z,-4.40
2022-12-18T07:21:52.749Z,-3.10
2022-12-18T07:24:57.948Z,-3.70
2022-12-18T07:26:32.172Z,-3.60
2022-12-18T07:28:05.926Z,-3.70
2022-12-18T07:29:38.833Z,-3.50
2022-12-18T07:31:14.162Z,-4.70
2022-12-18T07:32:47.146Z,-3.60
2022-12-18T07:34:20.047Z,-4.90
2022-12-18T07:35:52.948Z,-3.20
2022-12-18T07:37:25.899Z,-2.90
2022-12-18T07:38:58.864Z,-3.60
2022-12-18T07:40:31.707Z,-3.10
2022-12-18T07:42:23.555Z,-2.30
2022-12-18T07:43:57.801Z,-3.50
2022-12-18T07:45:30.650Z,-4.30
2022-12-18T07:47:06.639Z,-3.30
2022-12-18T07:48:45.524Z,-3.80
2022-12-18T07:50:22.498Z,-3.00
2022-12-18T07:51:57.042Z,-3.00
2022-12-18T07:53:30.292Z,-4.00
2022-12-18T07:55:03.218Z,-2.80
2022-12-18T07:56:36.076Z,-2.20
2022-12-18T07:58:10.702Z,-2.80
2022-12-18T07:59:43.622Z,-2.70
2022-12-18T08:01:16.615Z,-2.30
2022-12-18T08:02:50.237Z,-2.40
2022-12-18T08:04:23.168Z,-2.60
2022-12-18T08:06:00.974Z,-2.80
2022-12-18T08:07:33.934Z,-2.10
2022-12-18T08:09:06.862Z,-4.70
2022-12-18T08:10:40.157Z,-2.90
2022-12-18T08:12:13.062Z,-3.30
2022-12-18T08:13:47.297Z,-2.70
2022-12-18T08:15:20.358Z,-1.50
2022-12-18T08:16:53.327Z,-1.80
2022-12-18T08:18:26.558Z,-2.50
2022-12-18T08:19:59.552Z,-2.50
2022-12-18T08:21:33.557Z,-2.30
2022-12-18T08:23:06.602Z,-2.10
2022-12-18T08:26:14.003Z,-1.70
2022-12-18T08:29:21.911Z,-2.30
2022-12-18T08:30:55.204Z,-2.30
2022-12-18T08:32:29.386Z,-2.20
2022-12-18T08:35:44.101Z,-2.10
2022-12-18T08:37:18.673Z,-1.80
2022-12-18T08:38:52.257Z,-3.60
2022-12-18T08:40:25.571Z,-2.10
2022-12-18T08:42:16.027Z,-2.30
2022-12-18T08:44:06.618Z,-2.20
2022-12-18T08:45:41.070Z,-2.10
2022-12-18T08:47:14.019Z,-1.20
2022-12-18T08:48:47.284Z,-2.40
2022-12-18T08:50:20.995Z,-1.60
2022-12-18T08:51:57.992Z,-1.50
2022-12-18T08:53:35.424Z,-1.80
2022-12-18T08:55:10.402Z,-1.90
2022-12-18T08:56:43.484Z,-2.00
2022-12-18T08:59:50.139Z,-1.80
2022-12-18T09:01:25.376Z,-2.20
2022-12-18T09:02:58.478Z,-2.10
2022-12-18T09:04:31.464Z,-1.90
2022-12-18T09:06:04.529Z,-1.90
2022-12-18T09:07:37.485Z,-2.10
2022-12-18T09:09:12.155Z,-1.20
2022-12-18T09:10:46.274Z,-1.90
2022-12-18T09:12:19.325Z,-1.70
2022-12-18T09:13:52.673Z,-1.60
2022-12-18T09:15:25.426Z,-1.60
2022-12-18T09:16:59.800Z,-2.00
2022-12-18T09:18:32.708Z,-0.20
2022-12-18T09:20:06.472Z,-1.40
2022-12-18T09:21:43.383Z,-0.60
2022-12-18T09:23:19.238Z,-1.00
2022-12-18T09:24:52.210Z,-1.50
2022-12-18T09:26:27.074Z,-1.50
2022-12-18T09:29:34.996Z,-0.80
2022-12-18T09:31:08.858Z,-1.50
2022-12-18T09:32:43.210Z,-1.50
2022-12-18T09:34:16.114Z,-1.60
2022-12-18T09:35:49.376Z,-1.50
2022-12-18T09:37:22.373Z,-1.90
2022-12-18T09:38:55.693Z,-1.70
2022-12-18T09:40:41.875Z,-1.60
2022-12-18T09:42:22.095Z,-1.30
2022-12-18T09:44:00.203Z,-2.30
2022-12-18T09:45:41.087Z,-1.50
2022-12-18T09:47:18.164Z,-0.50
2022-12-18T09:48:56.562Z,-1.20
2022-12-18T09:50:34.862Z,-2.60
2022-12-18T09:52:14.689Z,-0.90
2022-12-18T09:54:03.498Z,-1.30
2022-12-18T09:55:39.834Z,-0.70
2022-12-18T09:57:16.359Z,-0.60
2022-12-18T09:58:55.197Z,-0.60
2022-12-18T10:00:28.247Z,-3.20
2022-12-18T10:02:01.332Z,-0.60
2022-12-18T10:03:34.730Z,-0.70
2022-12-18T10:05:13.245Z,-2.40
2022-12-18T10:06:54.730Z,-0.30
2022-12-18T10:08:35.898Z,0.00
2022-12-18T10:10:14.747Z,-0.60
2022-12-18T10:11:56.424Z,-0.70
2022-12-18T10:13:39.634Z,-0.70
2022-12-18T10:15:22.245Z,-0.70
2022-12-18T10:17:04.758Z,-0.90
2022-12-18T10:18:59.830Z,-0.80
2022-12-18T10:20:40.653Z,-1.00
2022-12-18T10:22:24.837Z,-1.60
2022-12-18T10:24:04.927Z,-0.50
2022-12-18T10:25:49.085Z,-0.30
2022-12-18T10:27:26.117Z,-0.40
2022-12-18T10:29:05.479Z,-0.30
2022-12-18T10:30:43.748Z,0.00
2022-12-18T10:32:19.158Z,1.10
2022-12-18T10:33:53.072Z,0.30
2022-12-18T10:35:28.795Z,-2.10
2022-12-18T10:37:08.367Z,-1.00
2022-12-18T10:38:41.937Z,-0.30
2022-12-18T10:40:21.774Z,-0.30
2022-12-18T10:42:13.958Z,-2.80
2022-12-18T10:43:47.310Z,-2.70
2022-12-18T10:45:20.283Z,-2.70
2022-12-18T10:46:57.777Z,-1.10
2022-12-18T10:48:33.138Z,-0.50
2022-12-18T10:50:06.702Z,-0.80
2022-12-18T10:51:40.020Z,-0.90
2022-12-18T10:53:22.402Z,-1.10
2022-12-18T10:54:59.247Z,-1.70
2022-12-18T10:56:35.418Z,-1.70
2022-12-18T10:58:26.982Z,-1.70
2022-12-18T11:00:01.998Z,-1.80
2022-12-18T11:01:52.395Z,-1.80
2022-12-18T11:03:36.533Z,-1.80
2022-12-18T11:05:28.720Z,-1.80
2022-12-18T11:07:03.887Z,-1.50
2022-12-18T11:08:39.059Z,-1.80
2022-12-18T11:10:18.500Z,-1.90
2022-12-18T11:11:53.274Z,-1.50
2022-12-18T11:13:28.793Z,-1.30
2022-12-18T11:15:01.876Z,-1.20
2022-12-18T11:16:39.454Z,-2.50
2022-12-18T11:18:21.048Z,-6.20
2022-12-18T11:19:59.031Z,-1.70
2022-12-18T11:21:32.445Z,-1.10
2022-12-18T11:23:06.842Z,-1.70
2022-12-18T11:24:41.969Z,-1.40
2022-12-18T11:26:15.388Z,-1.80
2022-12-18T11:27:52.956Z,-1.70
2022-12-18T11:29:30.618Z,0.50
2022-12-18T11:31:29.235Z,-1.80
2022-12-18T11:33:07.334Z,-0.70
2022-12-18T11:34:41.434Z,-1.50
2022-12-18T11:36:16.148Z,-1.80
2022-12-18T11:37:55.272Z,-2.00
2022-12-18T11:39:36.073Z,-0.70
2022-12-18T11:41:21.711Z,-1.90
2022-12-18T11:43:00.268Z,-2.90
2022-12-18T11:44:40.403Z,-2.00
2022-12-18T11:46:19.865Z,-1.90
2022-12-18T11:47:59.521Z,-2.60
2022-12-18T11:49:36.251Z,-2.00
2022-12-18T11:51:16.720Z,-1.90
2022-12-18T11:52:55.958Z,-1.60
2022-12-18T11:56:13.639Z,-2.00
2022-12-18T11:57:57.248Z,-2.10
2022-12-18T11:59:42.157Z,-1.20
2022-12-18T12:01:35.591Z,-2.20
2022-12-18T12:03:52.867Z,-2.20
2022-12-18T12:05:43.087Z,-2.50
2022-12-18T12:07:33.437Z,-1.70
2022-12-18T12:09:15.505Z,-1.80
2022-12-18T12:10:58.828Z,-1.10
2022-12-18T12:12:48.957Z,-1.90
2022-12-18T12:14:41.658Z,-1.80
2022-12-18T12:16:21.979Z,-1.40
2022-12-18T12:18:00.130Z,-1.90
2022-12-18T12:19:42.980Z,-1.60
2022-12-18T12:21:25.789Z,-1.50
2022-12-18T12:23:07.573Z,-1.50
2022-12-18T12:24:52.857Z,-1.40
2022-12-18T12:26:35.441Z,-1.30
2022-12-18T12:28:18.765Z,-1.00
2022-12-18T12:30:05.602Z,-1.30
2022-12-18T12:31:53.391Z,-1.40
2022-12-18T12:33:41.792Z,-1.40
2022-12-18T12:35:30.960Z,-1.40
2022-12-18T12:37:20.265Z,-2.80
2022-12-18T12:38:57.282Z,-2.30
2022-12-18T12:40:53.897Z,-1.40
2022-12-18T12:42:51.044Z,-1.40
2022-12-18T12:44:28.140Z,-0.70
2022-12-18T12:46:09.090Z,-1.30
2022-12-18T12:47:45.971Z,-2.90
2022-12-18T12:49:23.099Z,-3.00
2022-12-18T12:50:58.279Z,-0.30
2022-12-18T12:52:36.842Z,-0.20
2022-12-18T12:54:22.890Z,-1.30
2022-12-18T12:55:56.893Z,-1.20
2022-12-18T12:57:36.504Z,-1.10
2022-12-18T12:59:16.115Z,-1.10
2022-12-18T13:00:57.605Z,-2.40
2022-12-18T13:02:37.961Z,-1.00
2022-12-18T13:04:23.368Z,-1.00
2022-12-18T13:06:01.322Z,-1.10
2022-12-18T13:07:39.990Z,-1.20
2022-12-18T13:09:13.346Z,-0.10
2022-12-18T13:10:46.909Z,-0.50
2022-12-18T13:14:22.646Z,-1.10
2022-12-18T13:16:05.748Z,-1.10
2022-12-18T13:17:40.893Z,-1.10
2022-12-18T13:19:27.935Z,-1.40
2022-12-18T13:21:10.195Z,0.00
2022-12-18T13:22:46.926Z,-0.80
2022-12-18T13:24:27.189Z,-1.10
2022-12-18T13:26:01.688Z,-1.10
2022-12-18T13:27:55.507Z,-0.90
2022-12-18T13:29:44.869Z,-1.00
2022-12-18T13:32:13.716Z,-1.20
2022-12-18T13:35:55.028Z,-3.00
2022-12-18T13:37:54.041Z,-1.30
2022-12-18T13:39:36.076Z,-1.30
2022-12-18T13:41:26.114Z,-1.20
2022-12-18T13:43:14.727Z,-1.30
2022-12-18T13:44:48.338Z,-1.20
2022-12-18T13:46:29.104Z,-1.20
2022-12-18T13:48:02.158Z,-1.20
2022-12-18T13:49:41.803Z,-1.00
2022-12-18T13:51:19.761Z,-3.40
2022-12-18T13:52:54.489Z,-0.90
2022-12-18T13:54:34.566Z,-1.20
2022-12-18T13:56:08.155Z,-0.30
2022-12-18T13:59:16.795Z,-1.20
2022-12-18T14:00:49.801Z,-1.60
2022-12-18T14:02:25.031Z,-1.50
2022-12-18T14:04:11.514Z,-1.50
2022-12-18T14:05:48.043Z,-0.50
2022-12-18T14:07:24.912Z,-3.20
2022-12-18T14:09:00.683Z,-1.60
2022-12-18T14:10:48.676Z,-1.50
2022-12-18T14:12:43.708Z,-1.60
2022-12-18T14:14:19.252Z,-1.60
2022-12-18T14:15:53.711Z,-3.40
2022-12-18T14:19:11.781Z,-1.60
2022-12-18T14:20:53.263Z,-1.60
2022-12-18T14:22:30.488Z,-0.90
2022-12-18T14:24:14.125Z,-1.50
2022-12-18T14:25:48.017Z,-1.70
2022-12-18T14:27:24.970Z,-1.60
2022-12-18T14:28:58.939Z,-0.80
2022-12-18T14:30:33.963Z,-1.80
2022-12-18T14:32:18.267Z,-1.30
2022-12-18T14:33:51.930Z,-1.60
2022-12-18T14:35:23.980Z,-1.90
2022-12-18T14:36:58.317Z,-1.90
2022-12-18T14:38:35.205Z,-1.50
2022-12-18T14:40:14.789Z,-1.90
2022-12-18T14:41:50.296Z,-1.80
2022-12-18T14:43:23.409Z,-0.80
2022-12-18T14:45:41.001Z,-3.70
2022-12-18T14:47:17.313Z,-2.10
2022-12-18T14:48:50.640Z,-2.00
2022-12-18T14:50:23.587Z,-1.10
2022-12-18T14:52:02.969Z,-2.20
2022-12-18T14:53:41.676Z,-2.50
2022-12-18T14:55:18.253Z,-2.00
2022-12-18T14:56:56.973Z,-2.30
2022-12-18T14:58:30.214Z,-2.90
2022-12-18T15:00:07.129Z,-2.80
2022-12-18T15:01:48.149Z,-2.50
2022-12-18T15:03:23.001Z,-2.50
2022-12-18T15:05:07.238Z,-2.60
2022-12-18T15:06:42.879Z,-2.00
2022-12-18T15:08:44.353Z,-2.00
2022-12-18T15:10:19.673Z,-2.60
2022-12-18T15:11:58.445Z,-2.60
2022-12-18T15:15:05.163Z,-2.70
2022-12-18T15:16:40.224Z,-2.70
2022-12-18T15:18:18.806Z,-2.80
2022-12-18T15:19:54.249Z,-2.80
2022-12-18T15:21:31.501Z,-2.30
2022-12-18T15:23:04.443Z,-3.60
2022-12-18T15:24:38.953Z,-2.90
2022-12-18T15:26:13.955Z,-2.90
2022-12-18T15:27:49.283Z,-2.90
2022-12-18T15:29:23.828Z,-2.90
2022-12-18T15:31:24.842Z,-3.00
2022-12-18T15:33:19.148Z,-3.00
2022-12-18T15:34:52.199Z,-3.00
2022-12-18T15:36:27.152Z,-3.10
2022-12-18T15:38:00.314Z,-3.10
2022-12-18T15:39:33.209Z,-3.10
2022-12-18T15:41:13.123Z,-3.20
2022-12-18T15:43:05.834Z,-3.20
2022-12-18T15:44:39.347Z,-3.10
2022-12-18T15:46:13.800Z,-3.10
2022-12-18T15:47:46.748Z,-3.10
2022-12-18T15:49:19.627Z,-3.10
2022-12-18T15:50:54.276Z,-3.10
2022-12-18T15:52:27.417Z,-3.20
2022-12-18T15:54:02.763Z,-3.20
2022-12-18T15:55:56.538Z,-3.20
2022-12-18T15:57:36.754Z,-4.20
2022-12-18T15:59:14.397Z,-3.40
2022-12-18T16:00:47.282Z,-2.70
2022-12-18T16:02:21.841Z,-3.20
2022-12-18T16:03:55.480Z,-2.60
2022-12-18T16:05:31.027Z,-3.20
2022-12-18T16:07:14.812Z,-3.00
2022-12-18T16:08:48.358Z,-3.00
2022-12-18T16:10:20.353Z,-3.00
2022-12-18T16:11:53.266Z,-2.90
2022-12-18T16:13:27.629Z,-2.90
2022-12-18T16:15:00.483Z,-3.80
2022-12-18T16:16:33.380Z,-2.20
2022-12-18T16:18:06.567Z,-2.00
2022-12-18T16:19:39.533Z,-3.10
2022-12-18T16:21:12.668Z,-3.00
2022-12-18T16:22:46.893Z,-3.10
2022-12-18T16:24:22.794Z,-3.10
2022-12-18T16:25:55.935Z,-1.60
2022-12-18T16:27:28.813Z,-3.20
2022-12-18T16:29:03.136Z,-3.20
2022-12-18T16:30:38.036Z,-3.30
2022-12-18T16:32:15.642Z,-2.40
2022-12-18T16:33:48.721Z,-3.30
2022-12-18T16:35:21.776Z,-3.30
2022-12-18T16:36:58.923Z,-2.70
2022-12-18T16:38:34.501Z,-3.70
2022-12-18T16:40:09.888Z,-3.40
2022-12-18T16:41:42.786Z,-3.40
2022-12-18T16:43:15.648Z,-3.50
2022-12-18T16:44:51.439Z,-3.50
2022-12-18T16:46:24.405Z,-4.30
2022-12-18T16:47:57.378Z,-1.50
2022-12-18T16:49:30.567Z,-3.60
2022-12-18T16:51:05.316Z,-3.60
2022-12-18T16:52:38.369Z,-3.60
2022-12-18T16:54:15.931Z,-3.60
2022-12-18T16:55:56.322Z,-3.90
2022-12-18T16:57:29.178Z,-3.40
2022-12-18T16:59:03.823Z,-3.60
2022-12-18T17:00:41.101Z,-3.10
2022-12-18T17:02:17.192Z,-3.00
2022-12-18T17:03:55.363Z,-3.10
2022-12-18T17:05:28.333Z,-3.70
2022-12-18T17:07:01.274Z,-3.60
2022-12-18T17:10:08.138Z,-4.50
2022-12-18T17:11:41.668Z,-3.60
2022-12-18T17:13:14.572Z,-3.60
2022-12-18T17:14:47.486Z,-3.60
2022-12-18T17:16:22.128Z,-3.60
2022-12-18T17:17:55.126Z,-3.30
2022-12-18T17:19:30.629Z,-4.40
2022-12-18T17:21:05.952Z,-3.70
2022-12-18T17:22:38.846Z,-3.60
2022-12-18T17:24:11.835Z,-2.90
2022-12-18T17:25:44.740Z,-3.60
2022-12-18T17:27:17.725Z,-3.70
2022-12-18T17:28:50.794Z,-3.70
2022-12-18T17:30:23.684Z,-3.70
2022-12-18T17:32:00.313Z,-4.00
2022-12-18T17:33:33.417Z,-5.30
2022-12-18T17:35:07.617Z,-5.00
2022-12-18T17:36:41.391Z,-3.80
2022-12-18T17:38:14.583Z,-3.80
2022-12-18T17:39:47.515Z,-3.80
2022-12-18T17:41:20.942Z,-3.90
2022-12-18T17:42:53.813Z,-3.90
2022-12-18T17:44:26.770Z,-4.40
2022-12-18T17:46:03.504Z,-4.10
2022-12-18T17:47:38.542Z,-3.80
2022-12-18T17:49:11.880Z,-5.10
2022-12-18T17:50:45.867Z,-3.90
2022-12-18T17:52:18.861Z,-3.90
2022-12-18T17:53:52.210Z,-4.90
2022-12-18T17:55:25.001Z,-3.90
2022-12-18T17:56:57.927Z,-3.90
2022-12-18T17:58:30.816Z,-3.10
2022-12-18T18:00:04.864Z,-4.50
2022-12-18T18:01:44.045Z,-4.00
2022-12-18T18:03:19.018Z,-3.90
2022-12-18T18:04:51.947Z,-4.10
2022-12-18T18:06:25.076Z,-3.90
2022-12-18T18:08:02.348Z,-4.40
2022-12-18T18:09:35.270Z,-3.90
2022-12-18T18:11:27.408Z,-3.90
2022-12-18T18:13:17.923Z,-4.10
2022-12-18T18:14:50.814Z,-2.70
2022-12-18T18:16:23.820Z,-3.80
2022-12-18T18:17:56.655Z,-3.80
2022-12-18T18:19:30.884Z,-4.60
2022-12-18T18:21:06.261Z,-4.00
2022-12-18T18:22:39.607Z,-3.80
2022-12-18T18:24:14.729Z,-2.60
2022-12-18T18:25:47.643Z,-3.70
2022-12-18T18:27:20.515Z,-3.70
2022-12-18T18:28:55.506Z,-3.70
2022-12-18T18:30:30.059Z,-3.70
2022-12-18T18:32:03.131Z,-3.40
2022-12-18T18:33:35.397Z,-3.70
2022-12-18T18:35:24.642Z,-4.10
2022-12-18T18:37:04.026Z,-3.40
2022-12-18T18:38:36.705Z,-3.60
2022-12-18T18:40:10.409Z,-2.20
2022-12-18T18:41:48.355Z,-3.60
2022-12-18T18:43:21.436Z,-3.60
2022-12-18T18:44:54.245Z,-3.70
2022-12-18T18:46:27.535Z,-3.50
2022-12-18T18:48:00.506Z,-3.60
2022-12-18T18:49:33.303Z,-3.50
2022-12-18T18:51:09.482Z,-3.60
2022-12-18T18:52:44.171Z,-3.60
2022-12-18T18:54:17.878Z,-3.90
2022-12-18T18:56:10.213Z,-5.40
2022-12-18T18:57:43.783Z,-3.50
2022-12-18T18:59:16.689Z,-3.30
2022-12-18T19:00:57.175Z,-4.80
2022-12-18T19:02:30.249Z,-3.60
2022-12-18T19:04:03.271Z,-3.40
2022-12-18T19:05:36.158Z,-3.10
2022-12-18T19:07:10.457Z,-3.60
2022-12-18T19:08:43.808Z,-3.60
2022-12-18T19:10:17.770Z,-5.30
2022-12-18T19:13:42.024Z,-3.50
2022-12-18T19:15:15.078Z,-3.60
2022-12-18T19:16:48.074Z,-3.70
2022-12-18T19:18:21.017Z,-3.80
2022-12-18T19:19:53.895Z,-3.10
2022-12-18T19:23:01.403Z,-3.60
2022-12-18T19:24:34.570Z,-2.70
2022-12-18T19:26:27.910Z,-3.60
2022-12-18T19:28:01.432Z,-3.70
2022-12-18T19:29:34.322Z,-3.50
2022-12-18T19:31:12.625Z,-2.50
2022-12-18T19:32:45.484Z,-3.30
2022-12-18T19:34:18.483Z,-3.30
2022-12-18T19:35:51.957Z,-3.50
2022-12-18T19:37:24.926Z,-3.50
2022-12-18T19:39:02.273Z,-3.20
2022-12-18T19:40:35.529Z,-3.40
2022-12-18T19:42:08.443Z,-5.60
2022-12-18T19:43:41.488Z,-3.50
2022-12-18T19:45:14.363Z,-3.30
2022-12-18T19:46:50.500Z,-2.60
2022-12-18T19:48:23.453Z,-3.50
2022-12-18T19:49:56.388Z,-2.10
2022-12-18T19:51:30.790Z,-3.40
2022-12-18T19:53:03.855Z,-4.20
2022-12-18T19:54:40.360Z,-2.90
2022-12-18T19:56:15.303Z,-4.40
2022-12-18T19:57:48.234Z,-3.50
2022-12-18T19:59:21.085Z,-3.30
2022-12-18T20:00:53.989Z,-3.30
2022-12-18T20:02:27.031Z,-1.90
2022-12-18T20:04:00.539Z,-3.30
2022-12-18T20:05:34.656Z,-3.60
2022-12-18T20:07:07.668Z,-2.50
2022-12-18T20:08:41.286Z,-3.20
2022-12-18T20:10:15.626Z,-3.40
2022-12-18T20:11:50.342Z,-3.10
2022-12-18T20:13:23.299Z,-4.80
2022-12-18T20:14:56.153Z,-3.10
2022-12-18T20:18:03.636Z,-3.30
2022-12-18T20:19:36.720Z,-3.10
2022-12-18T20:22:47.193Z,-3.20
2022-12-18T20:24:20.095Z,-3.40
2022-12-18T20:25:55.629Z,-3.20
2022-12-18T20:27:28.515Z,-3.00
2022-12-18T20:29:01.488Z,-2.80
2022-12-18T20:30:34.430Z,-2.30
2022-12-18T20:32:07.329Z,-3.20
2022-12-18T20:33:41.153Z,-3.80
2022-12-18T20:35:14.378Z,-2.40
2022-12-18T20:36:47.366Z,-2.90
2022-12-18T20:38:20.532Z,-3.10
2022-12-18T20:39:54.542Z,-3.30
2022-12-18T20:41:31.045Z,-3.40
2022-12-18T20:43:16.964Z,-3.60
2022-12-18T20:44:50.257Z,-3.60
2022-12-18T20:46:23.403Z,-3.10
2022-12-18T20:47:56.939Z,-3.10
2022-12-18T20:49:30.276Z,-2.00
2022-12-18T20:51:05.602Z,-3.00
2022-12-18T20:52:38.672Z,-3.10
2022-12-18T20:55:45.081Z,-3.10
2022-12-18T20:57:19.329Z,-2.70
2022-12-18T20:58:55.072Z,-4.30
2022-12-18T21:02:01.548Z,-2.10
2022-12-18T21:03:34.778Z,-3.10
2022-12-18T21:05:08.570Z,-3.00
2022-12-18T21:06:42.851Z,-1.90
2022-12-18T21:08:17.871Z,-2.20
2022-12-18T21:09:50.796Z,-3.00
2022-12-18T21:11:47.301Z,-2.90
2022-12-18T21:13:21.694Z,-3.00
2022-12-18T21:16:28.099Z,-2.90
2022-12-18T21:18:01.624Z,-2.90
2022-12-18T21:19:34.824Z,-2.60
2022-12-18T21:21:07.821Z,-2.90
2022-12-18T21:22:40.715Z,-2.60
2022-12-18T21:24:13.692Z,-2.90
2022-12-18T21:25:46.921Z,-3.10
2022-12-18T21:27:22.865Z,-3.00
2022-12-18T21:28:58.630Z,-2.80
2022-12-18T21:32:06.177Z,-2.80
2022-12-18T21:33:38.161Z,-3.30
2022-12-18T21:35:11.165Z,-3.60
2022-12-18T21:36:44.077Z,-3.00
2022-12-18T21:38:16.968Z,-3.10
2022-12-18T21:41:42.268Z,-5.30
2022-12-18T21:43:33.137Z,-3.10
2022-12-18T21:45:08.406Z,-3.20
2022-12-18T21:46:43.059Z,-2.90
2022-12-18T21:49:49.126Z,-3.20
2022-12-18T21:51:21.994Z,-3.20
2022-12-18T21:52:54.919Z,-2.60
2022-12-18T21:54:29.747Z,-3.50
2022-12-18T21:56:02.738Z,-4.70
2022-12-18T21:57:35.667Z,-3.20
2022-12-18T21:59:07.596Z,-3.00
2022-12-18T22:00:46.961Z,-3.10